createdAt,value
2022-11-18T00:00:16.596Z,95.94
2022-11-18T00:02:18.508Z,96.11
2022-11-18T00:04:19.582Z,96.13
2022-11-18T00:06:21.492Z,96.24
2022-11-18T00:08:23.006Z,96.48
2022-11-18T00:10:24.231Z,96.45
2022-11-18T00:12:26.195Z,96.4
2022-11-18T00:16:28.747Z,96.36
2022-11-18T00:18:29.752Z,96.36
2022-11-18T00:20:31.219Z,96.44
2022-11-18T00:22:32.940Z,96.45
2022-11-18T00:24:34.435Z,96.35
2022-11-18T00:26:36.330Z,96.24
2022-11-18T00:28:37.427Z,96.31
2022-11-18T00:30:38.631Z,96.24
2022-11-18T00:32:39.950Z,96.3
2022-11-18T00:34:41.132Z,96.16
2022-11-18T00:36:42.320Z,96.15
2022-11-18T00:38:43.786Z,96.16
2022-11-18T00:40:45.017Z,96.2
2022-11-18T00:42:46.509Z,96.29
2022-11-18T00:44:48.271Z,96.42
2022-11-18T00:48:51.001Z,96.39
2022-11-18T00:50:52.296Z,96.35
2022-11-18T00:52:53.712Z,96.45
2022-11-18T00:54:55.080Z,96.42
2022-11-18T00:58:57.111Z,96.46
2022-11-18T01:00:58.496Z,96.35
2022-11-18T01:02:59.955Z,96.45
2022-11-18T01:05:01.324Z,96.6
2022-11-18T01:07:02.423Z,96.52
2022-11-18T01:09:04.253Z,96.32
2022-11-18T01:11:06.111Z,95.84
2022-11-18T01:15:09.062Z,94.97
2022-11-18T01:17:10.825Z,95.13
2022-11-18T01:19:12.712Z,95.54
2022-11-18T01:21:14.010Z,95.79
2022-11-18T01:23:15.171Z,95.7
2022-11-18T01:25:16.393Z,95.73
2022-11-18T01:27:17.786Z,95.66
2022-11-18T01:29:19.362Z,95.73
2022-11-18T01:31:20.097Z,95.86
2022-11-18T01:33:21.576Z,95.97
2022-11-18T01:35:22.661Z,95.9
2022-11-18T01:37:24.393Z,95.82
2022-11-18T01:39:25.293Z,95.86
2022-11-18T01:41:26.650Z,96.03
2022-11-18T01:43:28.414Z,95.86
2022-11-18T01:45:30.356Z,95.9
2022-11-18T01:47:31.872Z,96.13
2022-11-18T01:49:33.433Z,96.16
2022-11-18T01:51:34.949Z,96.15
2022-11-18T01:53:36.369Z,96.13
2022-11-18T01:57:39.079Z,96.09
2022-11-18T01:59:40.415Z,96.08
2022-11-18T02:01:41.584Z,95.62
2022-11-18T02:03:42.954Z,95.47
2022-11-18T02:05:44.886Z,95.4
2022-11-18T02:07:46.200Z,95.56
2022-11-18T02:09:47.561Z,95.8
2022-11-18T02:11:48.759Z,95.81
2022-11-18T02:13:50.504Z,95.85
2022-11-18T02:15:52.307Z,95.91
2022-11-18T02:17:53.915Z,96.08
2022-11-18T02:19:55.098Z,96.16
2022-11-18T02:21:56.723Z,96.4
2022-11-18T02:23:57.832Z,96.59
2022-11-18T02:25:59.259Z,96.72
2022-11-18T02:28:00.738Z,96.8
2022-11-18T02:30:02.601Z,96.99
2022-11-18T02:32:03.755Z,97.1
2022-11-18T02:34:05.096Z,97.17
2022-11-18T02:36:06.574Z,97.32
2022-11-18T02:40:09.624Z,97.52
2022-11-18T02:42:10.910Z,97.58
2022-11-18T02:44:12.156Z,97.62
2022-11-18T02:46:13.652Z,97.69
2022-11-18T02:48:15.459Z,97.66
2022-11-18T02:50:17.117Z,97.68
2022-11-18T02:52:18.053Z,97.69
2022-11-18T02:56:21.685Z,97.73
2022-11-18T02:58:23.341Z,97.73
2022-11-18T03:00:24.737Z,97.73
2022-11-18T03:02:26.220Z,97.68
2022-11-18T03:04:28.006Z,97.65
2022-11-18T03:05:11.842Z,97.61
2022-11-18T03:07:13.063Z,97.67
2022-11-18T03:09:14.007Z,97.64
2022-11-18T03:11:15.270Z,97.61
2022-11-18T03:13:16.898Z,97.64
2022-11-18T03:15:18.541Z,97.64
2022-11-18T03:17:19.885Z,97.62
2022-11-18T03:19:21.205Z,97.58
2022-11-18T03:23:24.049Z,97.61
2022-11-18T03:25:25.267Z,97.59
2022-11-18T03:27:26.424Z,97.72
2022-11-18T03:29:28.071Z,97.75
2022-11-18T03:31:29.709Z,97.77
2022-11-18T03:33:31.585Z,97.78
2022-11-18T03:35:33.004Z,97.75
2022-11-18T03:37:34.754Z,97.7
2022-11-18T03:39:36.000Z,97.66
2022-11-18T03:41:37.098Z,97.7
2022-11-18T03:43:38.772Z,97.8
2022-11-18T03:45:39.955Z,97.84
2022-11-18T03:47:41.265Z,97.86
2022-11-18T03:49:42.331Z,97.89
2022-11-18T03:51:44.160Z,97.89
2022-11-18T03:53:45.786Z,97.86
2022-11-18T03:55:46.841Z,97.87
2022-11-18T03:57:48.279Z,97.86
2022-11-18T03:59:49.519Z,97.88
2022-11-18T04:01:50.519Z,97.92
2022-11-18T04:03:51.458Z,97.93
2022-11-18T04:05:52.519Z,97.93
2022-11-18T04:07:53.977Z,97.93
2022-11-18T04:09:55.465Z,97.93
2022-11-18T04:11:56.950Z,97.9
2022-11-18T04:16:00.190Z,97.9
2022-11-18T04:18:02.134Z,97.88
2022-11-18T04:20:03.156Z,97.8
2022-11-18T04:22:04.178Z,97.78
2022-11-18T04:24:05.518Z,97.7
2022-11-18T04:26:06.600Z,97.65
2022-11-18T04:28:08.467Z,97.54
2022-11-18T04:30:09.521Z,97.4
2022-11-18T04:32:10.813Z,97.25
2022-11-18T04:34:11.889Z,97.09
2022-11-18T04:36:13.559Z,97.01
2022-11-18T04:38:19.180Z,96.95
2022-11-18T04:40:15.833Z,96.8
2022-11-18T04:42:17.261Z,96.67
2022-11-18T04:44:18.854Z,96.5
2022-11-18T04:48:22.356Z,96.22
2022-11-18T04:50:23.448Z,95.98
2022-11-18T04:52:24.499Z,95.82
2022-11-18T04:54:25.624Z,95.63
2022-11-18T04:58:28.676Z,95.42
2022-11-18T05:00:29.767Z,95.41
2022-11-18T05:02:30.984Z,95.26
2022-11-18T05:04:32.489Z,95.06
2022-11-18T05:06:33.631Z,94.7
2022-11-18T05:08:35.166Z,94.79
2022-11-18T05:10:36.669Z,94.6
2022-11-18T05:12:37.793Z,94.83
2022-11-18T05:14:39.116Z,94.75
2022-11-18T05:16:40.998Z,94.92
2022-11-18T05:18:42.701Z,94.73
2022-11-18T05:20:44.083Z,94.78
2022-11-18T05:22:45.710Z,94.38
2022-11-18T05:24:46.936Z,94.38
2022-11-18T05:26:48.539Z,94.5
2022-11-18T05:28:50.053Z,94.69
2022-11-18T05:30:51.314Z,94.45
2022-11-18T05:32:52.993Z,94.18
2022-11-18T05:34:54.429Z,94.34
2022-11-18T05:36:55.886Z,94.25
2022-11-18T05:38:57.590Z,94.22
2022-11-18T05:40:59.090Z,94.15
2022-11-18T05:43:00.903Z,94.11
2022-11-18T05:47:03.753Z,93.91
2022-11-18T05:49:05.155Z,93.92
2022-11-18T05:51:06.712Z,93.93
2022-11-18T05:53:08.659Z,94.01
2022-11-18T05:57:11.535Z,94.09
2022-11-18T05:59:12.797Z,94.06
2022-11-18T06:01:14.733Z,94.09
2022-11-18T06:03:15.844Z,93.87
2022-11-18T06:05:16.970Z,93.69
2022-11-18T06:07:18.625Z,93.71
2022-11-18T06:09:19.786Z,93.91
2022-11-18T06:11:21.345Z,94.03
2022-11-18T06:13:22.313Z,94.06
2022-11-18T06:15:23.554Z,94.1
2022-11-18T06:17:25.295Z,94.24
2022-11-18T06:19:26.719Z,94.41
2022-11-18T06:21:27.796Z,94.29
2022-11-18T06:23:29.284Z,94.04
2022-11-18T06:25:30.905Z,94.21
2022-11-18T06:27:32.762Z,94.16
2022-11-18T06:29:34.523Z,94.22
2022-11-18T06:31:35.934Z,94.22
2022-11-18T06:33:37.687Z,94.54
2022-11-18T06:35:39.553Z,94.55
2022-11-18T06:39:42.827Z,94.91
2022-11-18T06:41:43.872Z,94.67
2022-11-18T06:43:45.267Z,94.83
2022-11-18T06:45:46.958Z,94.89
2022-11-18T06:47:48.654Z,94.89
2022-11-18T06:49:50.257Z,94.62
2022-11-18T06:51:52.011Z,94.7
2022-11-18T06:53:53.255Z,94.89
2022-11-18T06:55:55.022Z,95.04
2022-11-18T06:57:56.185Z,94.74
2022-11-18T07:00:01.744Z,94.63
2022-11-18T07:01:58.664Z,94.81
2022-11-18T07:04:00.568Z,94.98
2022-11-18T07:06:01.696Z,94.92
2022-11-18T07:08:03.189Z,94.85
2022-11-18T07:10:04.867Z,94.93
2022-11-18T07:12:06.006Z,94.99
2022-11-18T07:14:07.630Z,95.04
2022-11-18T07:16:08.644Z,94.96
2022-11-18T07:18:10.035Z,95.06
2022-11-18T07:22:12.532Z,95.04
2022-11-18T07:24:14.127Z,94.96
2022-11-18T07:26:15.261Z,94.79
2022-11-18T07:28:17.019Z,94.59
2022-11-18T07:30:18.036Z,94.79
2022-11-18T07:32:18.942Z,94.81
2022-11-18T07:34:20.586Z,94.49
2022-11-18T07:36:21.608Z,94.72
2022-11-18T07:38:23.214Z,94.85
2022-11-18T07:40:24.392Z,94.9
2022-11-18T07:42:26.201Z,94.94
2022-11-18T07:44:27.882Z,94.9
2022-11-18T07:46:29.639Z,94.53
2022-11-18T07:48:31.358Z,94.8
2022-11-18T07:50:33.021Z,94.92
2022-11-18T07:54:36.134Z,94.85
2022-11-18T07:56:37.379Z,95.06
2022-11-18T07:58:39.082Z,94.96
2022-11-18T08:00:40.232Z,95
2022-11-18T08:04:43.256Z,95.28
2022-11-18T08:06:45.081Z,95.06
2022-11-18T08:08:46.848Z,95.18
2022-11-18T08:10:48.182Z,95.08
2022-11-18T08:12:49.395Z,95.12
2022-11-18T08:14:51.082Z,94.89
2022-11-18T08:16:52.091Z,94.88
2022-11-18T08:18:53.314Z,94.92
2022-11-18T08:20:54.587Z,95.02
2022-11-18T08:22:56.469Z,95.07
2022-11-18T08:24:57.781Z,94.92
2022-11-18T08:26:58.955Z,95.04
2022-11-18T08:29:00.811Z,95.11
2022-11-18T08:31:02.532Z,95.22
2022-11-18T08:33:03.932Z,94.88
2022-11-18T08:35:09.687Z,95.03
2022-11-18T08:37:06.551Z,95.26
2022-11-18T08:39:07.558Z,95.28
2022-11-18T08:41:09.347Z,95.26
2022-11-18T08:43:10.448Z,95.4
2022-11-18T08:45:12.153Z,95.57
2022-11-18T08:47:14.055Z,95.59
2022-11-18T08:49:16.108Z,95.57
2022-11-18T08:51:16.931Z,95.63
2022-11-18T08:53:17.995Z,95.65
2022-11-18T08:55:19.933Z,95.64
2022-11-18T08:57:21.647Z,95.76
2022-11-18T08:59:23.356Z,95.52
2022-11-18T09:03:25.595Z,95.16
2022-11-18T09:05:27.362Z,95.36
2022-11-18T09:07:29.021Z,95.45
2022-11-18T09:09:30.070Z,95.53
2022-11-18T09:11:32.047Z,95.64
2022-11-18T09:13:53.603Z,95.77
2022-11-18T09:15:34.473Z,95.63
2022-11-18T09:17:35.858Z,95.48
2022-11-18T09:19:47.043Z,95.55
2022-11-18T09:21:40.781Z,95.68
2022-11-18T09:23:40.088Z,95.59
2022-11-18T09:25:41.662Z,95.49
2022-11-18T09:27:43.456Z,95.33
2022-11-18T09:29:44.823Z,95.23
2022-11-18T09:31:45.885Z,94.92
2022-11-18T09:33:47.104Z,95.01
2022-11-18T09:35:48.378Z,95.34
2022-11-18T09:37:49.568Z,95.49
2022-11-18T09:39:51.437Z,95.46
2022-11-18T09:41:52.983Z,95.57
2022-11-18T09:45:56.375Z,95.72
2022-11-18T09:47:57.601Z,95.75
2022-11-18T09:49:59.412Z,95.66
2022-11-18T09:52:44.111Z,95.82
2022-11-18T09:54:45.409Z,95.8
2022-11-18T09:56:46.608Z,95.92
2022-11-18T09:58:47.782Z,95.88
2022-11-18T10:00:49.220Z,96.04
2022-11-18T10:02:50.629Z,95.9
2022-11-18T10:04:52.124Z,95.96
2022-11-18T10:06:53.892Z,95.93
2022-11-18T10:08:55.353Z,95.93
2022-11-18T10:10:57.045Z,96.04
2022-11-18T10:12:58.212Z,96.05
2022-11-18T10:15:00.089Z,96.08
2022-11-18T10:17:01.076Z,95.92
2022-11-18T10:19:02.716Z,95.9
2022-11-18T10:21:04.010Z,95.92
2022-11-18T10:23:05.219Z,95.91
2022-11-18T10:25:06.722Z,95.84
2022-11-18T10:29:09.444Z,95.62
2022-11-18T10:31:11.166Z,95.65
2022-11-18T10:33:12.697Z,95.8
2022-11-18T10:35:14.153Z,95.83
2022-11-18T10:39:17.269Z,95.88
2022-11-18T10:41:19.044Z,95.95
2022-11-18T10:43:20.879Z,95.79
2022-11-18T10:45:22.204Z,95.79
2022-11-18T10:47:24.034Z,95.8
2022-11-18T10:49:25.037Z,95.69
2022-11-18T10:51:26.081Z,95.79
2022-11-18T10:53:27.706Z,95.88
2022-11-18T10:55:29.521Z,95.84
2022-11-18T10:57:30.709Z,95.89
2022-11-18T10:59:32.630Z,95.94
2022-11-18T11:01:33.910Z,95.85
2022-11-18T11:03:35.474Z,96
2022-11-18T11:05:37.094Z,95.94
2022-11-18T11:07:38.864Z,96
2022-11-18T11:11:49.765Z,96.03
2022-11-18T11:13:43.699Z,96.16
2022-11-18T11:15:45.000Z,96.2
2022-11-18T11:17:46.954Z,96.26
2022-11-18T11:21:49.521Z,96.14
2022-11-18T11:23:50.971Z,96.17
2022-11-18T11:28:16.441Z,95.99
2022-11-18T11:29:55.935Z,96.1
2022-11-18T11:31:57.677Z,96.15
2022-11-18T11:33:58.970Z,96.32
2022-11-18T11:36:00.105Z,96.32
2022-11-18T11:38:01.149Z,96.41
2022-11-18T11:40:02.651Z,96.2
2022-11-18T11:42:04.338Z,95.91
2022-11-18T11:44:05.804Z,95.77
2022-11-18T11:46:07.008Z,95.8
2022-11-18T11:48:08.727Z,95.94
2022-11-18T11:50:19.527Z,95.57
2022-11-18T11:54:13.434Z,95.42
2022-11-18T11:56:18.357Z,95.66
2022-11-18T11:58:15.990Z,95.61
2022-11-18T12:00:17.503Z,95.48
2022-11-18T12:04:20.961Z,95.6
2022-11-18T12:06:22.024Z,95.24
2022-11-18T12:08:23.130Z,95.46
2022-11-18T12:10:24.609Z,95.46
2022-11-18T12:12:25.971Z,95.64
2022-11-18T12:14:27.819Z,95.55
2022-11-18T12:16:29.451Z,95.63
2022-11-18T12:18:31.110Z,95.71
2022-11-18T12:20:33.019Z,95.8
2022-11-18T12:22:34.089Z,95.56
2022-11-18T12:24:35.760Z,95.6
2022-11-18T12:26:36.952Z,95.21
2022-11-18T12:28:38.837Z,95.37
2022-11-18T12:30:40.737Z,95.23
2022-11-18T12:32:41.658Z,95.54
2022-11-18T12:34:43.318Z,95.65
2022-11-18T12:36:44.978Z,95.39
2022-11-18T12:38:46.307Z,95.35
2022-11-18T12:40:50.797Z,95.22
2022-11-18T12:42:48.673Z,95.31
2022-11-18T12:46:51.943Z,95.68
2022-11-18T12:48:53.655Z,95.22
2022-11-18T12:50:55.582Z,95.32
2022-11-18T12:52:57.186Z,95.57
2022-11-18T12:54:58.951Z,95.75
2022-11-18T12:57:00.392Z,95.48
2022-11-18T12:59:01.397Z,95.6
2022-11-18T13:01:02.743Z,95.45
2022-11-18T13:03:04.356Z,95.02
2022-11-18T13:05:05.559Z,95.09
2022-11-18T13:07:07.220Z,95.12
2022-11-18T13:09:08.971Z,94.85
2022-11-18T13:11:10.795Z,95.13
2022-11-18T13:13:11.798Z,95.04
2022-11-18T13:15:13.460Z,95.03
2022-11-18T13:17:14.385Z,95.1
2022-11-18T13:19:16.265Z,95.14
2022-11-18T13:21:17.386Z,95.11
2022-11-18T13:23:18.916Z,95.19
2022-11-18T13:25:20.542Z,95.19
2022-11-18T13:29:23.625Z,94.95
2022-11-18T13:31:25.057Z,94.51
2022-11-18T13:33:26.693Z,94.46
2022-11-18T13:35:27.769Z,94.64
2022-11-18T13:37:28.986Z,94.89
2022-11-18T13:39:30.222Z,94.89
2022-11-18T13:41:31.527Z,94.49
2022-11-18T13:43:32.555Z,94.17
2022-11-18T13:45:34.228Z,94.34
2022-11-18T13:47:35.408Z,93.7
2022-11-18T13:49:36.405Z,92.97
2022-11-18T13:51:37.888Z,93.07
2022-11-18T13:53:38.909Z,93.33
2022-11-18T13:55:40.385Z,93.45
2022-11-18T13:57:41.585Z,93.58
2022-11-18T14:01:44.601Z,93.53
2022-11-18T14:03:46.220Z,93.88
2022-11-18T14:05:47.936Z,93.67
2022-11-18T14:07:49.292Z,93.84
2022-11-18T14:11:52.246Z,94.1
2022-11-18T14:13:53.242Z,94.16
2022-11-18T14:15:54.915Z,93.84
2022-11-18T14:17:56.661Z,93.9
2022-11-18T14:19:58.199Z,93.8
2022-11-18T14:21:59.616Z,93.89
2022-11-18T14:24:00.677Z,93.4
2022-11-18T14:26:01.868Z,92.92
2022-11-18T14:28:03.345Z,92.95
2022-11-18T14:30:04.941Z,92.89
2022-11-18T14:32:06.754Z,92.73
2022-11-18T14:34:07.912Z,92.77
2022-11-18T14:36:09.339Z,92.63
2022-11-18T14:38:38.727Z,92.48
2022-11-18T14:40:12.182Z,92.45
2022-11-18T14:42:13.242Z,92.88
2022-11-18T14:44:14.552Z,92.95
2022-11-18T14:46:15.727Z,93.2
2022-11-18T14:48:17.506Z,93.13
2022-11-18T14:50:19.199Z,92.84
2022-11-18T14:52:20.349Z,92.89
2022-11-18T14:54:26.240Z,93.25
2022-11-18T14:56:22.514Z,93.57
2022-11-18T14:58:23.879Z,93.74
2022-11-18T15:00:25.453Z,93.84
2022-11-18T15:02:26.784Z,93.73
2022-11-18T15:04:28.126Z,93.53
2022-11-18T15:06:29.205Z,93.6
2022-11-18T15:10:31.635Z,93.78
2022-11-18T15:12:33.302Z,93.25
2022-11-18T15:14:34.319Z,93.37
2022-11-18T15:16:36.219Z,93.62
2022-11-18T15:18:37.671Z,93.87
2022-11-18T15:20:39.034Z,93.73
2022-11-18T15:22:40.312Z,93.45
2022-11-18T15:24:42.140Z,93.51
2022-11-18T15:26:43.309Z,93.68
2022-11-18T15:28:44.715Z,93.81
2022-11-18T15:30:46.368Z,93.69
2022-11-18T15:32:47.555Z,93.74
2022-11-18T15:34:49.403Z,93.65
2022-11-18T15:36:50.715Z,93.59
2022-11-18T15:38:52.391Z,93.65
2022-11-18T15:40:54.258Z,93.69
2022-11-18T15:42:56.222Z,93.44
2022-11-18T15:44:57.465Z,93.35
2022-11-18T15:46:58.543Z,93.32
2022-11-18T15:48:59.613Z,93.43
2022-11-18T15:51:00.711Z,93.49
2022-11-18T15:53:01.761Z,93.6
2022-11-18T15:55:05.526Z,93.79
2022-11-18T15:57:04.659Z,93.71
2022-11-18T15:59:06.013Z,93.2
2022-11-18T16:01:07.754Z,93.25
2022-11-18T16:03:08.688Z,93.29
2022-11-18T16:05:09.674Z,93.13
2022-11-18T16:07:11.394Z,93.35
2022-11-18T16:09:12.594Z,93.67
2022-11-18T16:11:13.653Z,93.63
2022-11-18T16:13:14.959Z,93.5
2022-11-18T16:15:16.129Z,93.52
2022-11-18T16:17:17.626Z,93.7
2022-11-18T16:19:19.587Z,93.8
2022-11-18T16:21:20.737Z,93.89
2022-11-18T16:25:23.321Z,93.83
2022-11-18T16:27:24.482Z,93.78
2022-11-18T16:29:26.271Z,93.79
2022-11-18T16:31:27.948Z,93.94
2022-11-18T16:33:29.809Z,93.59
2022-11-18T16:35:31.317Z,93.29
2022-11-18T16:36:15.135Z,93.3
2022-11-18T16:38:16.973Z,93.51
2022-11-18T16:40:17.995Z,93.59
2022-11-18T16:42:19.631Z,93.41
2022-11-18T16:44:20.965Z,93.52
2022-11-18T16:46:22.382Z,93.56
2022-11-18T16:48:23.735Z,93.92
2022-11-18T16:52:26.823Z,93.97
2022-11-18T16:54:27.978Z,94.06
2022-11-18T16:56:29.353Z,93.75
2022-11-18T16:58:30.687Z,93.63
2022-11-18T17:02:33.168Z,93.63
2022-11-18T17:04:34.757Z,94.01
2022-11-18T17:06:35.865Z,94.13
2022-11-18T17:08:37.568Z,94.35
2022-11-18T17:10:38.749Z,94.15
2022-11-18T17:12:39.971Z,93.98
2022-11-18T17:14:41.332Z,94.21
2022-11-18T17:16:42.467Z,94.49
2022-11-18T17:18:44.219Z,94.64
2022-11-18T17:20:45.713Z,94.72
2022-11-18T17:22:47.560Z,94.32
2022-11-18T17:24:48.926Z,94.27
2022-11-18T17:26:50.198Z,94.1
2022-11-18T17:28:52.043Z,93.96
2022-11-18T17:30:53.090Z,94.04
2022-11-18T17:32:54.704Z,94.2
2022-11-18T17:34:56.396Z,94.52
2022-11-18T17:37:00.285Z,94.59
2022-11-18T17:38:59.336Z,94.88
2022-11-18T17:41:00.517Z,95.02
2022-11-18T17:43:01.770Z,95.03
2022-11-18T17:45:03.334Z,95.01
2022-11-18T17:47:04.619Z,95.27
2022-11-18T17:51:07.659Z,95.12
2022-11-18T17:53:08.726Z,95.25
2022-11-18T17:55:10.168Z,95.02
2022-11-18T17:57:11.462Z,94.77
2022-11-18T18:01:14.379Z,94.87
2022-11-18T18:03:15.358Z,94.92
2022-11-18T18:05:16.415Z,95.08
2022-11-18T18:07:17.959Z,95.34
2022-11-18T18:09:20.114Z,95.31
2022-11-18T18:11:20.864Z,95.46
2022-11-18T18:13:22.656Z,95.55
2022-11-18T18:15:23.698Z,95.57
2022-11-18T18:17:24.729Z,95.5
2022-11-18T18:19:26.288Z,95.53
2022-11-18T18:21:28.017Z,95.53
2022-11-18T18:23:29.084Z,95.66
2022-11-18T18:25:30.285Z,95.86
2022-11-18T18:27:31.285Z,95.98
2022-11-18T18:29:32.800Z,96.1
2022-11-18T18:31:34.418Z,96.29
2022-11-18T18:33:35.493Z,96.2
2022-11-18T18:35:36.892Z,96.19
2022-11-18T18:37:37.929Z,96.08
2022-11-18T18:39:38.972Z,95.93
2022-11-18T18:43:42.111Z,96.16
2022-11-18T18:45:43.942Z,96.05
2022-11-18T18:47:45.443Z,96.11
2022-11-18T18:49:46.970Z,96.1
2022-11-18T18:51:48.769Z,96.17
2022-11-18T18:53:50.398Z,96
2022-11-18T18:55:52.081Z,95.99
2022-11-18T18:57:53.932Z,95.91
2022-11-18T18:59:55.429Z,95.93
2022-11-18T19:01:57.140Z,96.04
2022-11-18T19:03:58.907Z,96.14
2022-11-18T19:06:27.601Z,96.19
2022-11-18T19:08:02.648Z,96.22
2022-11-18T19:10:03.750Z,96.19
2022-11-18T19:12:05.800Z,96.2
2022-11-18T19:16:08.734Z,96.34
2022-11-18T19:18:09.784Z,96.39
2022-11-18T19:20:11.063Z,96.47
2022-11-18T19:22:12.597Z,96.49
2022-11-18T19:26:15.319Z,96.37
2022-11-18T19:28:16.885Z,96.3
2022-11-18T19:30:18.274Z,96.29
2022-11-18T19:32:19.365Z,96.28
2022-11-18T19:34:20.608Z,96.36
2022-11-18T19:36:21.787Z,96.42
2022-11-18T19:38:23.430Z,96.38
2022-11-18T19:40:24.648Z,96.44
2022-11-18T19:42:25.716Z,96.62
2022-11-18T19:44:27.512Z,96.66
2022-11-18T19:46:31.569Z,96.83
2022-11-18T19:48:30.711Z,96.84
2022-11-18T19:50:32.621Z,96.74
2022-11-18T19:52:33.973Z,96.91
2022-11-18T19:54:35.239Z,96.87
2022-11-18T19:56:36.758Z,96.93
2022-11-18T19:58:38.266Z,97.02
2022-11-18T20:00:39.398Z,97.04
2022-11-18T20:02:40.437Z,97.02
2022-11-18T20:04:42.078Z,97
2022-11-18T20:06:43.451Z,96.99
2022-11-18T20:08:44.948Z,96.96
2022-11-18T20:10:46.064Z,97.03
2022-11-18T20:14:48.596Z,97.05
2022-11-18T20:16:50.378Z,97.1
2022-11-18T20:18:52.212Z,97.07
2022-11-18T20:20:54.126Z,97.14
2022-11-18T20:24:57.134Z,97.13
2022-11-18T20:26:58.536Z,97.19
2022-11-18T20:29:00.429Z,97.24
2022-11-18T20:31:01.589Z,97.26
2022-11-18T20:33:03.320Z,97.26
2022-11-18T20:35:04.978Z,97.18
2022-11-18T20:37:06.744Z,97.18
2022-11-18T20:39:08.277Z,97.22
2022-11-18T20:41:09.994Z,97.16
2022-11-18T20:43:11.075Z,97.18
2022-11-18T20:45:12.638Z,97.18
2022-11-18T20:47:14.160Z,97.15
2022-11-18T20:49:16.172Z,97.11
2022-11-18T20:51:16.930Z,97.03
2022-11-18T20:53:18.580Z,96.92
2022-11-18T20:57:22.015Z,96.92
2022-11-18T20:59:23.195Z,96.85
2022-11-18T21:01:24.973Z,96.71
2022-11-18T21:03:25.956Z,96.61
2022-11-18T21:07:29.274Z,96.46
2022-11-18T21:09:31.006Z,96.45
2022-11-18T21:11:32.750Z,96.51
2022-11-18T21:13:34.179Z,96.53
2022-11-18T21:15:35.495Z,96.55
2022-11-18T21:17:36.935Z,96.63
2022-11-18T21:19:38.789Z,96.55
2022-11-18T21:21:39.924Z,96.44
2022-11-18T21:23:41.104Z,96.25
2022-11-18T21:25:42.350Z,96.26
2022-11-18T21:27:43.659Z,96.08
2022-11-18T21:29:44.883Z,96.08
2022-11-18T21:31:46.546Z,96.23
2022-11-18T21:33:47.643Z,96.25
2022-11-18T21:35:49.244Z,96.22
2022-11-18T21:37:50.901Z,96.24
2022-11-18T21:39:52.667Z,96.49
2022-11-18T21:41:56.532Z,96.47
2022-11-18T21:44:05.295Z,96.51
2022-11-18T21:45:56.316Z,96.56
2022-11-18T21:49:59.656Z,96.55
2022-11-18T21:52:00.993Z,96.45
2022-11-18T21:54:02.663Z,96.32
2022-11-18T21:56:04.503Z,96.26
2022-11-18T21:58:05.755Z,96.24
2022-11-18T22:00:07.089Z,96.22
2022-11-18T22:02:08.261Z,96.18
2022-11-18T22:04:10.010Z,96.16
2022-11-18T22:06:11.024Z,96.15
2022-11-18T22:08:12.171Z,96.17
2022-11-18T22:10:13.431Z,96.25
2022-11-18T22:12:15.184Z,96.39
2022-11-18T22:14:16.184Z,96.42
2022-11-18T22:16:17.589Z,96.46
2022-11-18T22:18:19.392Z,96.5
2022-11-18T22:20:21.269Z,96.54
2022-11-18T22:22:22.392Z,96.55
2022-11-18T22:24:23.449Z,96.58
2022-11-18T22:26:25.116Z,96.53
2022-11-18T22:28:26.741Z,96.37
2022-11-18T22:32:29.458Z,96.09
2022-11-18T22:34:31.107Z,96.05
2022-11-18T22:36:32.714Z,96.11
2022-11-18T22:38:33.732Z,96.13
2022-11-18T22:40:34.985Z,96.21
2022-11-18T22:42:36.621Z,96.31
2022-11-18T22:44:38.234Z,96.27
2022-11-18T22:46:39.676Z,96.27
2022-11-18T22:48:40.971Z,96.34
2022-11-18T22:50:42.139Z,96.32
2022-11-18T22:52:43.891Z,96.31
2022-11-18T22:54:45.819Z,96.35
2022-11-18T22:56:47.067Z,96.4
2022-11-18T22:58:48.897Z,96.44
2022-11-18T23:00:50.642Z,96.5
2022-11-18T23:04:53.451Z,96.66
2022-11-18T23:06:55.089Z,96.74
2022-11-18T23:08:55.964Z,96.78
2022-11-18T23:10:57.858Z,96.86
2022-11-18T23:15:00.277Z,96.96
2022-11-18T23:17:02.229Z,96.98
2022-11-18T23:21:04.415Z,96.17
2022-11-18T23:21:48.298Z,96.01
2022-11-18T23:23:49.945Z,95.91
2022-11-18T23:25:51.544Z,96.33
2022-11-18T23:27:54.295Z,96.65
2022-11-18T23:29:54.024Z,96.89
2022-11-18T23:31:55.217Z,96.72
2022-11-18T23:33:56.364Z,96.83
2022-11-18T23:35:57.495Z,96.91
2022-11-18T23:37:58.522Z,96.87
2022-11-18T23:39:59.678Z,96.93
2022-11-18T23:42:01.532Z,96.94
2022-11-18T23:44:03.091Z,97.05
2022-11-18T23:46:04.375Z,96.9
2022-11-18T23:48:05.589Z,96.84
2022-11-18T23:50:07.517Z,96.74
2022-11-18T23:52:09.314Z,96.67
2022-11-18T23:54:10.377Z,96.38
2022-11-18T23:56:12.194Z,96.52
2022-11-18T23:58:13.574Z,96.64
